< < Back
Terminal Aerodrome Forecast


Current Version              Previous Versions:   1  2  3  4  5  6  7  8  9  

Terminal Aerodrome Forecast

937
FTUS42 KFFC 280339 AAA
TAFCSG
TAF AMD
KCSG 280339Z 2804/2824 02007KT P6SM FEW250
     FM280900 05006KT P6SM SCT110
     FM281500 08011G18KT P6SM SCT050 BKN100
     FM281800 09010G15KT P6SM BKN050
     FM282100 09008KT P6SM OVC035=



Latest METAR

152
SAUS70 KWBC 281600 RRA
MTRCSG
METAR KCSG 281551Z 08011KT 10SM CLR 10/00 A3053 RMK AO2 SLP340
T01000000


USA.gov is the U.S. government's official web portal to all federal, state and local government web resources and services.